Ana Sayfa
METAR-TAF:

METAR-TAF

Havaalanları :

Muscle Shoals, Alabama, Amerika Birleşik Devletleri

Enlem: 34-44-38N, Boylam: 087-35-58W, yükseklik: 167 m

Güncel hava durumu gözlemi

Rapor saat 20:53 UTC de 42 dakika önce yapıldı.
Rüzgar doğudan 6 kt
Sıcaklık 33°C
Nem 39%
Basınç 1024 hPa
Görüş mesafesi: 16.1 km
6000 ft yükseklikte parçalı bulutlu

METAR: KMSL 202053Z AUTO 10006KT 10SM SCT060 33/17 A3023 RMK AO2 SLP231 T03330172 56016

Saat: 16:35 (21:35 UTC)

Tahmin

Rapor saat 17:20 UTC de 4 saat ve 15 dakika önce yapıldı.
Ayın 20'si saat 18 UTC'den ayın 21'si saat 18 UTC'ye kadar geçerli Tahmin
Rüzgar doğu/güneydoğudan 9 kt
Görüş mesafesi: 10 km
5000 ft yükseklikte az bulutlu
Ayın 21'si saat 0100 UTC'den
Rüzgar değişken yönden 3 kt
Görüş mesafesi: 10 km
25000 ft yükseklikte az bulutlu

TAF: KMSL 201720Z 2018/2118 11009KT P6SM FEW050 FM210100 VRB03KT P6SM FEW250

4.000'den fazla havaalanı için hava durumu gözlemleri ve tahminleri (METAR ve TAF raporları).

Kullanılabilir istasyonlar harita üzerinde sarı ve kırmızı noktalarla gösterilir.

İstasyonun adını görmek için fareyi noktanın üzerinde gezdirin.

Sonrasında hava gözlem ve tahminlerini görmek için tıklayın.

Haritayı değiştirmek için: yaklaştırmak için siyah artı işaretli yeşil düğmeye ve uzaklaştırmak için de eksi işaretli düğmeye hızla tıklayın; bitişik haritalar için yeşil okları kullanın.


METAR-TAF: